Montara, California
Current Conditions -  °F | °C
As of 3:55 PM on Friday 28 Nov 2014 (Local Time) from KHAF Reporting Station
Few Clouds Few Clouds  
Wind Chill: 57°   Ceiling: Unl
Heat Index: 57°   Visibility: 7mi
Dew Point: 54°   Wind: 6mph
Humidity: 88%   Direction: 170°S
Pressure: 29.93"   Gusts: NA
Location:  37.54°N, 122.52°W
Report Text: KHAF 282355Z AUTO 17005KT 7SM FEW024 14/12 A2993 RMK AO2
Loading
Personal Weather Stations






























Interactive Weather Map New forecast layout! Learn more

10-Day Weather Forecast

Advertisements
Track Severe Weather on mobile